createdAt,value
2023-03-27T00:01:52.393Z,6.80
2023-03-27T00:04:21.333Z,6.84
2023-03-27T00:06:50.005Z,6.87
2023-03-27T00:09:19.868Z,6.93
2023-03-27T00:11:50.133Z,6.76
2023-03-27T00:14:18.930Z,6.83
2023-03-27T00:16:47.657Z,6.71
2023-03-27T00:19:16.349Z,6.68
2023-03-27T00:21:45.801Z,6.66
2023-03-27T00:24:15.822Z,6.69
2023-03-27T00:26:44.566Z,6.68
2023-03-27T00:29:14.519Z,6.62
2023-03-27T00:31:43.140Z,6.59
2023-03-27T00:34:11.733Z,6.62
2023-03-27T00:36:40.721Z,6.61
2023-03-27T00:39:10.212Z,6.65
2023-03-27T00:41:38.800Z,6.66
2023-03-27T00:44:23.728Z,6.60
2023-03-27T00:46:54.450Z,6.57
2023-03-27T00:49:23.592Z,6.52
2023-03-27T00:51:53.054Z,6.54
2023-03-27T00:54:26.477Z,6.48
2023-03-27T00:56:56.052Z,6.49
2023-03-27T00:59:28.743Z,6.48
2023-03-27T01:01:57.978Z,6.51
2023-03-27T01:04:27.068Z,6.36
2023-03-27T01:06:56.782Z,6.34
2023-03-27T01:09:27.204Z,6.25
2023-03-27T01:12:07.054Z,6.24
2023-03-27T01:14:42.309Z,6.21
2023-03-27T01:17:34.719Z,6.10
2023-03-27T01:20:42.343Z,6.14
2023-03-27T01:23:59.892Z,5.95
2023-03-27T01:26:57.719Z,5.87
2023-03-27T01:29:39.156Z,5.84
2023-03-27T01:32:51.039Z,5.86
2023-03-27T01:35:33.345Z,5.80
2023-03-27T01:38:09.958Z,5.68
2023-03-27T01:40:42.713Z,5.65
2023-03-27T01:43:13.801Z,5.67
2023-03-27T01:45:46.100Z,5.58
2023-03-27T01:48:18.444Z,5.57
2023-03-27T01:50:48.625Z,5.51
2023-03-27T01:53:22.029Z,5.42
2023-03-27T01:55:54.600Z,5.34
2023-03-27T01:58:28.258Z,5.35
2023-03-27T02:01:01.273Z,5.24
2023-03-27T02:03:33.666Z,5.30
2023-03-27T02:06:06.594Z,5.23
2023-03-27T02:08:38.651Z,5.27
2023-03-27T02:11:09.053Z,5.14
2023-03-27T02:13:39.759Z,5.15
2023-03-27T02:16:10.732Z,5.14
2023-03-27T02:18:46.038Z,5.08
2023-03-27T02:21:15.157Z,5.03
2023-03-27T02:23:44.598Z,4.96
2023-03-27T02:26:14.659Z,4.87
2023-03-27T02:28:52.709Z,4.79
2023-03-27T02:31:35.089Z,4.80
2023-03-27T02:34:19.440Z,4.80
2023-03-27T02:36:54.934Z,4.80
2023-03-27T02:39:26.624Z,4.81
2023-03-27T02:42:01.322Z,4.88
2023-03-27T02:44:33.547Z,4.77
2023-03-27T02:47:07.679Z,4.81
2023-03-27T02:49:39.913Z,4.69
2023-03-27T02:52:12.478Z,4.60
2023-03-27T02:54:44.718Z,4.55
2023-03-27T02:57:18.593Z,4.58
2023-03-27T02:59:50.758Z,4.61
2023-03-27T03:02:22.984Z,4.60
2023-03-27T03:04:57.087Z,4.57
2023-03-27T03:07:26.502Z,4.44
2023-03-27T03:09:55.401Z,4.39
2023-03-27T03:12:25.388Z,4.31
2023-03-27T03:14:54.022Z,4.21
2023-03-27T03:17:22.638Z,4.13
2023-03-27T03:19:51.284Z,4.09
2023-03-27T03:22:19.883Z,4.09
2023-03-27T03:24:48.491Z,4.06
2023-03-27T03:27:20.887Z,3.98
2023-03-27T03:29:51.862Z,4.05
2023-03-27T03:32:20.480Z,3.91
2023-03-27T03:34:49.146Z,3.84
2023-03-27T03:37:17.803Z,3.78
2023-03-27T03:39:46.730Z,3.72
2023-03-27T03:42:22.570Z,3.75
2023-03-27T03:44:53.187Z,3.78
2023-03-27T03:47:21.766Z,3.68
2023-03-27T03:49:50.422Z,3.59
2023-03-27T03:52:19.031Z,3.55
2023-03-27T03:54:47.639Z,3.60
2023-03-27T03:57:16.993Z,3.52
2023-03-27T03:59:46.945Z,3.54
2023-03-27T04:02:28.092Z,3.61
2023-03-27T04:04:57.585Z,3.68
2023-03-27T04:07:31.469Z,3.65
2023-03-27T04:10:00.201Z,3.66
2023-03-27T04:12:29.131Z,3.66
2023-03-27T04:14:57.988Z,3.65
2023-03-27T04:17:28.213Z,3.65
2023-03-27T04:19:57.243Z,3.65
2023-03-27T04:22:26.585Z,3.63
2023-03-27T04:24:55.309Z,3.72
2023-03-27T04:27:23.967Z,3.80
2023-03-27T04:29:54.101Z,3.55
2023-03-27T04:32:26.191Z,3.60
2023-03-27T04:34:56.143Z,3.63
2023-03-27T04:37:24.817Z,3.65
2023-03-27T04:39:53.598Z,3.57
2023-03-27T04:42:23.461Z,3.58
2023-03-27T04:44:53.344Z,3.56
2023-03-27T04:47:21.932Z,3.43
2023-03-27T04:49:51.074Z,3.47
2023-03-27T04:52:21.400Z,3.47
2023-03-27T04:54:50.039Z,3.50
2023-03-27T04:57:22.097Z,3.45
2023-03-27T04:59:50.802Z,3.34
2023-03-27T05:02:19.459Z,3.29
2023-03-27T05:04:48.823Z,3.26
2023-03-27T05:07:17.454Z,3.24
2023-03-27T05:09:47.449Z,3.21
2023-03-27T05:12:16.506Z,3.07
2023-03-27T05:14:45.578Z,3.12
2023-03-27T05:17:15.327Z,3.14
2023-03-27T05:19:45.163Z,3.07
2023-03-27T05:22:14.595Z,3.10
2023-03-27T05:24:43.643Z,3.07
2023-03-27T05:27:13.641Z,3.13
2023-03-27T05:29:47.071Z,3.21
2023-03-27T05:32:16.398Z,3.16
2023-03-27T05:34:45.880Z,3.08
2023-03-27T05:37:16.424Z,2.93
2023-03-27T05:39:46.182Z,2.87
2023-03-27T05:42:16.860Z,2.89
2023-03-27T05:44:45.547Z,2.96
2023-03-27T05:47:15.217Z,2.98
2023-03-27T05:49:43.972Z,2.93
2023-03-27T05:52:12.580Z,2.92
2023-03-27T05:54:41.967Z,2.89
2023-03-27T05:57:10.782Z,2.98
2023-03-27T05:59:40.873Z,2.99
2023-03-27T06:02:10.912Z,2.98
2023-03-27T06:04:41.367Z,2.97
2023-03-27T06:07:10.323Z,2.85
2023-03-27T06:09:39.016Z,3.18
2023-03-27T06:12:07.695Z,3.39
2023-03-27T06:14:36.339Z,3.50
2023-03-27T06:17:06.473Z,3.31
2023-03-27T06:19:35.259Z,3.25
2023-03-27T06:22:03.844Z,3.11
2023-03-27T06:24:32.497Z,2.89
2023-03-27T06:27:01.179Z,2.84
2023-03-27T06:29:30.481Z,2.88
2023-03-27T06:32:01.499Z,2.90
2023-03-27T06:34:31.486Z,2.83
2023-03-27T06:37:02.670Z,2.86
2023-03-27T06:39:31.315Z,2.84
2023-03-27T06:41:59.908Z,2.89
2023-03-27T06:44:28.539Z,2.99
2023-03-27T06:46:57.292Z,2.99
2023-03-27T06:49:26.021Z,2.98
2023-03-27T06:51:55.943Z,2.99
2023-03-27T06:54:24.595Z,3.08
2023-03-27T06:56:53.273Z,3.03
2023-03-27T06:59:22.427Z,3.04
2023-03-27T07:01:52.397Z,3.09
2023-03-27T07:04:21.264Z,3.09
2023-03-27T07:06:50.511Z,3.10
2023-03-27T07:09:20.552Z,3.11
2023-03-27T07:11:49.162Z,3.18
2023-03-27T07:14:17.800Z,3.11
2023-03-27T07:16:46.440Z,3.00
2023-03-27T07:19:15.203Z,2.98
2023-03-27T07:21:43.829Z,3.05
2023-03-27T07:24:12.778Z,3.14
2023-03-27T07:26:42.792Z,3.11
2023-03-27T07:29:11.527Z,3.17
2023-03-27T07:31:55.819Z,3.23
2023-03-27T07:34:25.426Z,3.30
2023-03-27T07:36:54.560Z,3.28
2023-03-27T07:39:23.177Z,3.29
2023-03-27T07:41:53.411Z,3.31
2023-03-27T07:44:22.407Z,3.33
2023-03-27T07:46:52.624Z,3.35
2023-03-27T07:49:39.334Z,3.39
2023-03-27T07:52:09.844Z,3.49
2023-03-27T07:54:38.500Z,3.56
2023-03-27T07:57:08.631Z,3.64
2023-03-27T07:59:38.206Z,3.76
2023-03-27T08:02:07.081Z,3.80
2023-03-27T08:04:36.386Z,3.85
2023-03-27T08:07:05.673Z,3.89
2023-03-27T08:09:34.331Z,3.97
2023-03-27T08:12:03.563Z,4.04
2023-03-27T08:14:33.633Z,4.00
2023-03-27T08:17:14.447Z,4.15
2023-03-27T08:19:46.199Z,4.28
2023-03-27T08:22:14.934Z,4.48
2023-03-27T08:24:43.633Z,4.66
2023-03-27T08:27:12.222Z,4.65
2023-03-27T08:29:43.443Z,4.79
2023-03-27T08:32:12.590Z,4.81
2023-03-27T08:34:42.376Z,5.16
2023-03-27T08:37:11.040Z,5.39
2023-03-27T08:39:39.715Z,5.46
2023-03-27T08:42:09.914Z,5.18
2023-03-27T08:44:38.845Z,5.38
2023-03-27T08:47:12.824Z,5.60
2023-03-27T08:49:44.261Z,5.62
2023-03-27T08:52:15.612Z,5.63
2023-03-27T08:54:46.338Z,5.71
2023-03-27T08:57:19.238Z,5.64
2023-03-27T08:59:48.159Z,5.56
2023-03-27T09:02:25.972Z,5.56
2023-03-27T09:05:00.457Z,5.74
2023-03-27T09:07:34.271Z,5.78
2023-03-27T09:10:07.338Z,5.68
2023-03-27T09:12:43.936Z,5.55
2023-03-27T09:15:15.356Z,5.42
2023-03-27T09:17:49.397Z,5.62
2023-03-27T09:20:20.613Z,5.73
2023-03-27T09:22:52.740Z,5.69
2023-03-27T09:25:25.358Z,5.59
2023-03-27T09:27:54.332Z,5.67
2023-03-27T09:30:26.088Z,5.80
2023-03-27T09:32:58.033Z,5.79
2023-03-27T09:35:27.390Z,5.90
2023-03-27T09:37:58.462Z,5.58
2023-03-27T09:40:33.461Z,5.45
2023-03-27T09:43:08.102Z,5.50
2023-03-27T09:45:39.179Z,5.44
2023-03-27T09:48:13.680Z,5.68
2023-03-27T09:50:45.706Z,5.67
2023-03-27T09:53:18.940Z,5.74
2023-03-27T09:55:52.810Z,5.82
2023-03-27T09:58:34.868Z,6.03
2023-03-27T10:01:08.626Z,6.18
2023-03-27T10:03:44.103Z,6.04
2023-03-27T10:06:16.490Z,6.03
2023-03-27T10:08:49.877Z,6.04
2023-03-27T10:11:20.837Z,6.34
2023-03-27T10:13:51.129Z,6.52
2023-03-27T10:16:21.466Z,6.58
2023-03-27T10:18:53.541Z,6.33
2023-03-27T10:21:27.782Z,6.10
2023-03-27T10:24:05.665Z,6.14
2023-03-27T10:26:36.025Z,6.15
2023-03-27T10:29:19.926Z,6.28
2023-03-27T10:31:51.213Z,6.24
2023-03-27T10:34:33.521Z,6.37
2023-03-27T10:37:04.317Z,6.67
2023-03-27T10:39:35.890Z,6.97
2023-03-27T10:42:08.068Z,6.87
2023-03-27T10:44:37.803Z,6.65
2023-03-27T10:47:07.006Z,7.08
2023-03-27T10:49:45.187Z,6.94
2023-03-27T10:52:19.558Z,7.25
2023-03-27T10:54:55.447Z,7.49
2023-03-27T10:57:27.659Z,7.84
2023-03-27T10:59:59.514Z,8.28
2023-03-27T11:02:32.384Z,8.46
2023-03-27T11:05:04.198Z,8.15
2023-03-27T11:07:37.761Z,8.20
2023-03-27T11:10:13.023Z,8.23
2023-03-27T11:12:43.437Z,7.89
2023-03-27T11:15:14.619Z,8.13
2023-03-27T11:17:47.589Z,8.34
2023-03-27T11:20:23.317Z,8.76
2023-03-27T11:22:57.607Z,8.87
2023-03-27T11:25:31.803Z,9.09
2023-03-27T11:28:07.972Z,9.04
2023-03-27T11:30:43.767Z,8.43
2023-03-27T11:33:27.768Z,8.20
2023-03-27T11:36:05.490Z,7.89
2023-03-27T11:38:37.501Z,8.06
2023-03-27T11:41:06.965Z,8.16
2023-03-27T11:43:38.816Z,8.27
2023-03-27T11:46:17.042Z,8.56
2023-03-27T11:48:59.172Z,9.08
2023-03-27T11:51:36.873Z,9.52
2023-03-27T11:54:13.404Z,9.47
2023-03-27T11:56:50.744Z,9.06
2023-03-27T11:59:43.103Z,8.63
2023-03-27T12:02:25.773Z,8.48
2023-03-27T12:04:57.986Z,8.52
2023-03-27T12:07:40.560Z,8.56
2023-03-27T12:10:28.828Z,8.75
2023-03-27T12:13:22.674Z,8.79
2023-03-27T12:16:17.748Z,9.03
2023-03-27T12:19:03.780Z,9.45
2023-03-27T12:21:46.487Z,9.52
2023-03-27T12:24:34.896Z,9.48
2023-03-27T12:27:21.908Z,9.56
2023-03-27T12:29:59.916Z,9.56
2023-03-27T12:32:46.709Z,9.13
2023-03-27T12:35:21.522Z,8.58
2023-03-27T12:37:56.579Z,9.08
2023-03-27T12:40:32.281Z,9.43
2023-03-27T12:43:07.623Z,9.28
2023-03-27T12:45:44.159Z,9.51
2023-03-27T12:48:20.739Z,9.30
2023-03-27T12:50:58.188Z,8.89
2023-03-27T12:53:49.639Z,8.76
2023-03-27T12:56:43.777Z,8.92
2023-03-27T12:59:20.981Z,9.00
2023-03-27T13:01:59.663Z,8.98
2023-03-27T13:04:43.870Z,8.95
2023-03-27T13:07:16.523Z,8.80
2023-03-27T13:09:55.723Z,8.15
2023-03-27T13:12:45.105Z,8.20
2023-03-27T13:15:40.324Z,8.26
2023-03-27T13:18:25.591Z,8.27
2023-03-27T13:20:58.088Z,8.40
2023-03-27T13:23:41.063Z,8.23
2023-03-27T13:26:26.523Z,8.19
2023-03-27T13:28:57.782Z,7.97
2023-03-27T13:31:58.779Z,7.96
2023-03-27T13:34:36.894Z,7.75
2023-03-27T13:37:43.055Z,7.40
2023-03-27T13:40:27.065Z,7.32
2023-03-27T13:43:05.281Z,6.74
2023-03-27T13:45:40.377Z,6.15
2023-03-27T13:48:27.068Z,6.12
2023-03-27T13:51:13.064Z,5.99
2023-03-27T13:54:01.796Z,6.02
2023-03-27T13:56:41.395Z,6.25
2023-03-27T13:59:29.888Z,6.25
2023-03-27T14:02:10.052Z,6.21
2023-03-27T14:05:13.505Z,6.12
2023-03-27T14:08:09.996Z,6.04
2023-03-27T14:11:11.550Z,6.07
2023-03-27T14:13:48.513Z,6.08
2023-03-27T14:16:36.697Z,6.04
2023-03-27T14:19:47.141Z,6.12
2023-03-27T14:22:20.453Z,6.21
2023-03-27T14:24:55.901Z,6.27
2023-03-27T14:27:26.284Z,6.43
2023-03-27T14:30:09.804Z,6.49
2023-03-27T14:32:38.865Z,6.69
2023-03-27T14:35:23.901Z,6.80
2023-03-27T14:37:56.733Z,6.80
2023-03-27T14:40:29.602Z,6.91
2023-03-27T14:42:59.952Z,6.93
2023-03-27T14:45:31.115Z,6.93
2023-03-27T14:48:02.751Z,6.93
2023-03-27T14:50:34.428Z,6.81
2023-03-27T14:53:04.200Z,6.49
2023-03-27T14:55:35.839Z,6.46
2023-03-27T14:58:11.517Z,6.55
2023-03-27T15:00:41.514Z,6.59
2023-03-27T15:03:14.653Z,6.59
2023-03-27T15:05:59.015Z,6.55
2023-03-27T15:08:29.769Z,6.27
2023-03-27T15:10:58.491Z,6.19
2023-03-27T15:13:27.780Z,6.32
2023-03-27T15:15:59.527Z,6.45
2023-03-27T15:18:32.848Z,6.59
2023-03-27T15:21:06.224Z,6.72
2023-03-27T15:23:38.420Z,6.74
2023-03-27T15:26:10.851Z,6.78
2023-03-27T15:28:42.309Z,6.81
2023-03-27T15:31:11.474Z,6.73
2023-03-27T15:33:43.515Z,6.41
2023-03-27T15:36:26.206Z,6.19
2023-03-27T15:38:56.136Z,5.99
2023-03-27T15:41:38.412Z,5.99
2023-03-27T15:44:10.966Z,6.07
2023-03-27T15:46:48.654Z,6.06
2023-03-27T15:49:23.150Z,5.85
2023-03-27T15:51:53.273Z,5.78
2023-03-27T15:54:40.069Z,5.71
2023-03-27T15:57:11.623Z,5.56
2023-03-27T15:59:51.323Z,5.59
2023-03-27T16:02:22.973Z,5.65
2023-03-27T16:04:54.399Z,5.70
2023-03-27T16:07:27.225Z,5.59
2023-03-27T16:09:56.960Z,5.65
2023-03-27T16:12:30.929Z,5.63
2023-03-27T16:15:00.706Z,5.60
2023-03-27T16:17:34.251Z,5.64
2023-03-27T16:20:07.944Z,5.56
2023-03-27T16:22:38.973Z,5.61
2023-03-27T16:25:10.195Z,5.48
2023-03-27T16:27:40.568Z,5.28
2023-03-27T16:30:11.592Z,5.24
2023-03-27T16:32:40.703Z,5.29
2023-03-27T16:35:09.628Z,5.31
2023-03-27T16:37:39.661Z,5.33
2023-03-27T16:40:10.361Z,5.45
2023-03-27T16:42:39.078Z,5.42
2023-03-27T16:45:09.208Z,5.15
2023-03-27T16:47:37.911Z,5.14
2023-03-27T16:50:11.746Z,5.06
2023-03-27T16:52:41.922Z,5.11
2023-03-27T16:55:13.013Z,5.01
2023-03-27T16:57:42.902Z,4.78
2023-03-27T17:00:14.956Z,4.78
2023-03-27T17:02:44.473Z,4.78
2023-03-27T17:05:14.030Z,4.60
2023-03-27T17:07:44.809Z,4.62
2023-03-27T17:10:13.666Z,4.34
2023-03-27T17:12:42.286Z,4.50
2023-03-27T17:15:11.454Z,4.32
2023-03-27T17:17:40.226Z,4.44
2023-03-27T17:20:09.852Z,4.49
2023-03-27T17:22:38.508Z,4.61
2023-03-27T17:25:09.938Z,4.65
2023-03-27T17:27:39.309Z,4.61
2023-03-27T17:30:09.756Z,4.62
2023-03-27T17:32:38.857Z,4.57
2023-03-27T17:35:08.246Z,4.60
2023-03-27T17:37:37.013Z,4.60
2023-03-27T17:40:09.725Z,4.60
2023-03-27T17:42:39.950Z,4.58
2023-03-27T17:45:09.062Z,4.55
2023-03-27T17:47:37.711Z,4.58
2023-03-27T17:50:07.909Z,4.59
2023-03-27T17:52:36.527Z,4.56
2023-03-27T17:55:06.397Z,4.54
2023-03-27T17:57:37.880Z,4.55
2023-03-27T18:00:09.708Z,4.59
2023-03-27T18:02:39.013Z,4.60
2023-03-27T18:05:09.002Z,4.54
2023-03-27T18:07:37.686Z,4.59
2023-03-27T18:10:08.439Z,4.48
2023-03-27T18:12:37.483Z,4.50
2023-03-27T18:15:09.030Z,4.44
2023-03-27T18:17:38.421Z,4.44
2023-03-27T18:20:10.142Z,4.47
2023-03-27T18:22:39.544Z,4.50
2023-03-27T18:25:10.239Z,4.56
2023-03-27T18:27:40.300Z,4.57
2023-03-27T18:30:13.685Z,4.56
2023-03-27T18:32:43.710Z,4.57
2023-03-27T18:35:14.619Z,4.56
2023-03-27T18:37:43.949Z,4.59
2023-03-27T18:40:15.044Z,4.62
2023-03-27T18:42:44.777Z,4.54
2023-03-27T18:45:16.603Z,4.53
2023-03-27T18:47:45.750Z,4.54
2023-03-27T18:50:15.461Z,4.53
2023-03-27T18:52:44.494Z,4.44
2023-03-27T18:55:13.710Z,4.35
2023-03-27T18:57:42.311Z,4.35
2023-03-27T19:00:18.148Z,4.30
2023-03-27T19:02:48.795Z,4.24
2023-03-27T19:05:18.171Z,4.16
2023-03-27T19:07:46.894Z,4.05
2023-03-27T19:10:15.631Z,4.01
2023-03-27T19:12:44.240Z,4.04
2023-03-27T19:15:19.837Z,4.01
2023-03-27T19:17:51.016Z,4.09
2023-03-27T19:20:19.687Z,4.12
2023-03-27T19:22:48.550Z,4.12
2023-03-27T19:25:17.683Z,4.01
2023-03-27T19:27:46.553Z,4.01
2023-03-27T19:30:15.838Z,4.04
2023-03-27T19:32:44.483Z,3.96
2023-03-27T19:35:14.531Z,3.99
2023-03-27T19:37:43.217Z,4.02
2023-03-27T19:40:13.132Z,4.00
2023-03-27T19:42:42.693Z,3.97
2023-03-27T19:45:11.998Z,3.89
2023-03-27T19:47:40.813Z,3.91
2023-03-27T19:50:09.997Z,3.92
2023-03-27T19:52:39.988Z,3.92
2023-03-27T19:55:09.291Z,3.75
2023-03-27T19:57:37.884Z,3.79
2023-03-27T20:00:12.639Z,3.81
2023-03-27T20:02:41.815Z,3.81
2023-03-27T20:05:10.967Z,3.78
2023-03-27T20:07:41.339Z,3.74
2023-03-27T20:10:10.785Z,3.62
2023-03-27T20:12:39.449Z,3.45
2023-03-27T20:15:12.176Z,3.41
2023-03-27T20:17:45.873Z,3.42
2023-03-27T20:20:14.645Z,3.41
2023-03-27T20:22:56.976Z,3.44
2023-03-27T20:25:28.296Z,3.45
2023-03-27T20:27:57.075Z,3.44
2023-03-27T20:30:26.374Z,3.48
2023-03-27T20:32:55.670Z,3.56
2023-03-27T20:35:25.238Z,3.49
2023-03-27T20:37:57.616Z,3.38
2023-03-27T20:40:26.965Z,3.40
2023-03-27T20:43:05.685Z,3.39
2023-03-27T20:45:34.287Z,3.39
2023-03-27T20:48:04.399Z,3.40
2023-03-27T20:50:35.018Z,3.46
2023-03-27T20:53:05.527Z,3.45
2023-03-27T20:55:39.189Z,3.50
2023-03-27T20:58:12.446Z,3.47
2023-03-27T21:00:43.632Z,3.52
2023-03-27T21:03:13.017Z,3.52
2023-03-27T21:05:41.789Z,3.52
2023-03-27T21:08:11.977Z,3.52
2023-03-27T21:10:40.858Z,3.56
2023-03-27T21:13:09.730Z,3.56
2023-03-27T21:15:38.309Z,3.60
2023-03-27T21:18:07.066Z,3.58
2023-03-27T21:20:35.779Z,3.60
2023-03-27T21:23:04.506Z,3.59
2023-03-27T21:25:34.855Z,3.58
2023-03-27T21:28:03.570Z,3.57
2023-03-27T21:30:46.557Z,3.63
2023-03-27T21:33:17.476Z,3.66
2023-03-27T21:35:47.256Z,3.65
2023-03-27T21:38:17.033Z,3.61
2023-03-27T21:40:48.030Z,3.59
2023-03-27T21:43:17.006Z,3.65
2023-03-27T21:45:46.755Z,3.61
2023-03-27T21:48:15.593Z,3.57
2023-03-27T21:50:44.229Z,3.56
2023-03-27T21:53:13.473Z,3.54
2023-03-27T21:55:42.542Z,3.48
2023-03-27T21:58:12.519Z,3.43
2023-03-27T22:00:41.318Z,3.40
2023-03-27T22:03:09.936Z,3.40
2023-03-27T22:05:38.645Z,3.37
2023-03-27T22:08:07.831Z,3.39
2023-03-27T22:10:37.524Z,3.38
2023-03-27T22:13:06.614Z,3.30
2023-03-27T22:15:36.677Z,3.29
2023-03-27T22:18:05.536Z,3.18
2023-03-27T22:20:34.157Z,3.15
2023-03-27T22:23:02.796Z,3.18
2023-03-27T22:25:31.413Z,3.13
2023-03-27T22:28:01.740Z,3.15
2023-03-27T22:30:30.836Z,3.07
2023-03-27T22:33:01.167Z,3.01
2023-03-27T22:35:30.306Z,2.99
2023-03-27T22:37:58.970Z,3.01
2023-03-27T22:40:27.583Z,2.96
2023-03-27T22:42:56.268Z,3.00
2023-03-27T22:45:24.877Z,3.02
2023-03-27T22:47:53.533Z,3.04
2023-03-27T22:50:23.608Z,2.94
2023-03-27T22:52:52.225Z,2.98
2023-03-27T22:55:20.911Z,2.91
2023-03-27T22:57:49.554Z,2.90
2023-03-27T23:00:19.144Z,2.86
2023-03-27T23:02:47.790Z,2.86
2023-03-27T23:05:16.603Z,2.84
2023-03-27T23:07:46.565Z,2.74
2023-03-27T23:10:15.236Z,2.72
2023-03-27T23:12:43.879Z,2.78
2023-03-27T23:15:12.804Z,2.70
2023-03-27T23:17:41.464Z,2.71
2023-03-27T23:20:10.405Z,2.64
2023-03-27T23:22:39.073Z,2.68
2023-03-27T23:25:09.782Z,2.56
2023-03-27T23:27:38.494Z,2.57
2023-03-27T23:30:08.490Z,2.62
2023-03-27T23:32:38.032Z,2.56
2023-03-27T23:35:07.444Z,2.53
2023-03-27T23:37:36.258Z,2.55
2023-03-27T23:40:06.072Z,2.55
2023-03-27T23:42:36.175Z,2.50
2023-03-27T23:45:05.636Z,2.54
2023-03-27T23:47:34.265Z,2.53
2023-03-27T23:50:02.950Z,2.52
2023-03-27T23:52:31.607Z,2.62
2023-03-27T23:55:00.406Z,2.64
2023-03-27T23:57:29.043Z,2.56
2023-03-27T23:59:59.015Z,2.56
